createdAt,value
2018-09-23T00:04:50.810Z,84.7
2018-09-23T00:05:49.735Z,84.22
2018-09-23T00:08:26.399Z,85.71
2018-09-23T00:09:25.553Z,84.84
2018-09-23T00:10:24.430Z,84.36
2018-09-23T00:11:23.079Z,84.36
2018-09-23T00:12:22.138Z,84.26
2018-09-23T00:13:20.456Z,84.17
2018-09-23T00:14:20.151Z,83.87
2018-09-23T00:15:18.060Z,84.17
2018-09-23T00:16:17.218Z,84.84
2018-09-23T00:17:16.159Z,85.13
2018-09-23T00:18:14.920Z,85.22
2018-09-23T00:19:13.804Z,85.32
2018-09-23T00:20:12.219Z,84.94
2018-09-23T00:21:11.290Z,84.64
2018-09-23T00:23:51.822Z,85.37
2018-09-23T00:26:15.728Z,85.13
2018-09-23T00:27:14.401Z,85.18
2018-09-23T00:30:36.512Z,84.89
2018-09-23T00:31:35.677Z,85.75
2018-09-23T00:32:34.679Z,85.47
2018-09-23T00:33:33.502Z,85.66
2018-09-23T00:34:32.802Z,85.47
2018-09-23T00:37:54.917Z,85.85
2018-09-23T00:38:54.082Z,86.43
2018-09-23T00:59:15.997Z,87.25
2018-09-23T01:00:14.613Z,88.11
2018-09-23T01:02:38.060Z,88.02
2018-09-23T01:03:38.401Z,87.63
2018-09-23T01:04:37.169Z,87.63
2018-09-23T01:05:37.915Z,87.25
2018-09-23T01:06:36.620Z,87.35
2018-09-23T01:07:35.458Z,87.1
2018-09-23T01:08:34.382Z,86.52
2018-09-23T01:09:32.864Z,86.38
2018-09-23T01:10:31.657Z,86.43
2018-09-23T01:11:30.733Z,87.01
2018-09-23T01:12:29.341Z,86.81
2018-09-23T01:13:28.273Z,87.29
2018-09-23T01:14:27.116Z,87.29
2018-09-23T01:15:25.675Z,86.43
2018-09-23T01:16:24.262Z,86.81
2018-09-23T01:17:23.137Z,87.39
2018-09-23T01:18:22.334Z,87.39
2018-09-23T01:19:20.770Z,87.01
2018-09-23T01:20:19.539Z,87.19
2018-09-23T01:21:18.133Z,87.29
2018-09-23T01:22:16.831Z,87.1
2018-09-23T01:23:15.712Z,87.77
2018-09-23T01:24:14.578Z,87.29
2018-09-23T01:25:13.369Z,88.35
2018-09-23T01:26:12.332Z,88.73
2018-09-23T01:27:10.796Z,88.35
2018-09-23T01:28:09.766Z,88.45
2018-09-23T01:29:08.581Z,88.54
2018-09-23T01:30:07.432Z,88.49
2018-09-23T01:31:06.227Z,89.02
2018-09-23T01:32:05.212Z,89.02
2018-09-23T01:33:03.919Z,88.93
2018-09-23T01:34:02.453Z,88.73
2018-09-23T01:35:01.333Z,89.02
2018-09-23T01:36:00.295Z,89.31
2018-09-23T01:36:59.003Z,89.12
2018-09-23T01:37:58.064Z,89.12
2018-09-23T01:38:57.165Z,89.22
2018-09-23T01:39:57.886Z,88.73
2018-09-23T01:40:56.610Z,88.49
2018-09-23T01:41:55.456Z,89.22
2018-09-23T01:42:54.253Z,90.03
2018-09-23T01:43:53.405Z,89.89
2018-09-23T01:44:51.846Z,89.31
2018-09-23T01:45:50.551Z,89.75
2018-09-23T01:46:49.457Z,89.75
2018-09-23T01:47:48.039Z,88.98
2018-09-23T01:48:49.950Z,89.46
2018-09-23T01:49:49.772Z,89.84
2018-09-23T01:50:47.792Z,89.26
2018-09-23T01:51:46.955Z,89.94
2018-09-23T01:52:47.606Z,90.03
2018-09-23T01:53:46.379Z,90.03
2018-09-23T01:54:45.319Z,89.46
2018-09-23T01:55:44.195Z,89.5
2018-09-23T01:56:42.943Z,89.4
2018-09-23T01:57:42.118Z,89.4
2018-09-23T01:58:40.963Z,88.88
2018-09-23T01:59:39.514Z,88.93
2018-09-23T02:00:38.277Z,88.73
2018-09-23T02:01:39.034Z,89.5
2018-09-23T02:02:37.754Z,89.6
2018-09-23T02:03:36.792Z,89.79
2018-09-23T02:04:35.541Z,89.94
2018-09-23T02:05:34.673Z,89.55
2018-09-23T02:06:35.722Z,90.32
2018-09-23T02:07:34.322Z,90.9
2018-09-23T02:08:33.175Z,90.22
2018-09-23T02:09:31.960Z,89.75
2018-09-23T02:10:31.097Z,89.75
2018-09-23T02:11:30.139Z,89.94
2018-09-23T02:12:28.713Z,90.32
2018-09-23T02:13:27.493Z,90.42
2018-09-23T02:14:26.340Z,90.13
2018-09-23T02:15:25.370Z,90.13
2018-09-23T02:16:24.059Z,90.13
2018-09-23T02:17:23.012Z,89.65
2018-09-23T02:18:22.484Z,89.94
2018-09-23T02:19:21.295Z,90.22
2018-09-23T02:20:20.018Z,90.32
2018-09-23T02:21:18.877Z,90.7
2018-09-23T02:22:17.887Z,90.61
2018-09-23T02:23:16.549Z,90.9
2018-09-23T02:24:15.081Z,90.7
2018-09-23T02:25:13.696Z,90.8
2018-09-23T02:26:12.783Z,90.9
2018-09-23T02:27:11.679Z,90.8
2018-09-23T02:28:10.243Z,90.99
2018-09-23T02:30:35.429Z,90.99
2018-09-23T02:31:34.142Z,90.22
2018-09-23T02:32:33.076Z,90.42
2018-09-23T02:33:31.718Z,90.32
2018-09-23T02:34:30.590Z,90.32
2018-09-23T02:35:29.077Z,90.52
2018-09-23T02:36:27.792Z,90.13
2018-09-23T02:41:48.911Z,90.22
2018-09-23T02:42:47.583Z,90.03
2018-09-23T02:43:46.559Z,90.42
2018-09-23T02:44:45.231Z,90.22
2018-09-23T02:46:49.457Z,90.61
2018-09-23T02:47:52.238Z,90.22
2018-09-23T02:50:17.193Z,89.98
2018-09-23T02:51:15.990Z,90.13
2018-09-23T02:52:14.580Z,89.84
2018-09-23T02:53:13.117Z,90.7
2018-09-23T02:54:14.021Z,90.42
2018-09-23T02:55:12.809Z,90.99
2018-09-23T02:56:11.744Z,90.7
2018-09-23T02:57:10.523Z,91.96
2018-09-23T02:58:09.534Z,90.7
2018-09-23T02:59:08.570Z,90.99
2018-09-23T03:00:07.969Z,91.19
2018-09-23T03:01:06.660Z,91.76
2018-09-23T03:02:05.649Z,92.39
2018-09-23T03:04:26.760Z,92.43
2018-09-23T03:05:27.474Z,92.33
2018-09-23T03:06:25.967Z,92.33
2018-09-23T03:07:24.783Z,91.57
2018-09-23T03:08:23.705Z,90.9
2018-09-23T03:09:46.346Z,91.38
2018-09-23T03:12:09.187Z,91.47
2018-09-23T03:13:07.877Z,91.57
2018-09-23T03:14:08.814Z,91.76
2018-09-23T03:15:07.633Z,90.66
2018-09-23T03:18:29.109Z,90.32
2018-09-23T03:19:27.767Z,90.9
2018-09-23T03:20:26.338Z,91.19
2018-09-23T03:22:49.147Z,91.47
2018-09-23T03:23:47.586Z,92
2018-09-23T03:24:46.220Z,91.76
2018-09-23T03:25:44.712Z,91.76
2018-09-23T03:26:43.493Z,91.33
2018-09-23T03:27:42.205Z,91.09
2018-09-23T03:28:41.452Z,91.19
2018-09-23T03:29:40.017Z,91.09
2018-09-23T03:30:38.569Z,91.42
2018-09-23T03:33:59.971Z,92.53
2018-09-23T03:34:58.541Z,92.14
2018-09-23T03:35:57.140Z,91.76
2018-09-23T03:36:55.843Z,92.33
2018-09-23T03:37:54.258Z,92.14
2018-09-23T03:38:53.197Z,92.53
2018-09-23T03:39:51.810Z,92.33
2018-09-23T03:40:50.600Z,92.05
2018-09-23T03:41:49.092Z,92.43
2018-09-23T03:42:47.646Z,91.96
2018-09-23T03:43:46.266Z,91.76
2018-09-23T03:44:44.803Z,92.05
2018-09-23T03:45:43.566Z,92.1
2018-09-23T03:46:42.152Z,91.86
2018-09-23T03:47:40.979Z,92.29
2018-09-23T03:49:50.499Z,91.13
2018-09-23T03:52:31.399Z,90.94
2018-09-23T04:11:13.845Z,92.43
2018-09-23T04:12:12.640Z,92.14
2018-09-23T04:15:51.828Z,92.43
2018-09-23T04:18:32.103Z,92.43
2018-09-23T04:22:11.417Z,93.3
2018-09-23T04:24:52.102Z,92.91
2018-09-23T04:27:32.682Z,94.54
2018-09-23T04:31:05.387Z,95.12
2018-09-23T04:33:45.714Z,96.7
2018-09-23T04:34:44.248Z,97.38
2018-09-23T04:35:43.104Z,97.61
2018-09-23T04:36:41.854Z,97.56
2018-09-23T04:39:22.307Z,98.24
2018-09-23T04:40:21.162Z,98.43
2018-09-23T04:42:49.116Z,99.63
2018-09-23T04:45:35.172Z,99.63
2018-09-23T04:46:34.416Z,99.63
2018-09-23T04:47:33.194Z,99.99
2018-09-23T04:48:32.131Z,99.99
2018-09-23T04:49:30.776Z,99.99
2018-09-23T04:50:29.461Z,99.99
2018-09-23T04:51:28.270Z,99.99
2018-09-23T04:52:27.325Z,99.99
2018-09-23T04:55:08.072Z,99.99
2018-09-23T04:56:06.740Z,99.99
2018-09-23T04:57:05.301Z,99.99
2018-09-23T04:58:03.970Z,99.99
2018-09-23T05:00:43.875Z,99.99
2018-09-23T05:01:42.716Z,99.99
2018-09-23T05:02:41.226Z,99.99
2018-09-23T05:03:40.059Z,99.99
2018-09-23T05:04:38.801Z,99.99
2018-09-23T05:05:37.580Z,99.99
2018-09-23T05:06:36.072Z,99.99
2018-09-23T05:07:34.648Z,99.99
2018-09-23T05:08:33.478Z,99.99
2018-09-23T05:09:32.205Z,99.99
2018-09-23T05:10:30.851Z,99.99
2018-09-23T05:11:29.559Z,99.99
2018-09-23T05:12:28.249Z,99.99
2018-09-23T05:13:26.906Z,99.99
2018-09-23T05:14:25.879Z,99.99
2018-09-23T05:15:24.458Z,99.99
2018-09-23T05:19:03.585Z,99.99
2018-09-23T05:21:43.945Z,99.99
2018-09-23T05:25:22.927Z,99.99
2018-09-23T05:26:21.675Z,99.99
2018-09-23T05:27:20.303Z,99.99
2018-09-23T05:28:19.184Z,99.99
2018-09-23T05:29:17.834Z,99.99
2018-09-23T05:30:16.673Z,99.99
2018-09-23T05:31:16.173Z,99.99
2018-09-23T05:32:15.344Z,99.99
2018-09-23T05:33:13.810Z,99.99
2018-09-23T05:38:34.864Z,99.99
2018-09-23T05:39:33.341Z,99.99
2018-09-23T05:40:31.833Z,99.99
2018-09-23T05:41:30.487Z,99.99
2018-09-23T05:42:29.234Z,99.99
2018-09-23T05:43:28.025Z,99.99
2018-09-23T05:44:26.518Z,99.99
2018-09-23T05:45:25.297Z,99.99
2018-09-23T05:46:23.965Z,99.99
2018-09-23T05:47:22.522Z,99.99
2018-09-23T05:48:21.052Z,99.99
2018-09-23T05:49:19.596Z,99.99
2018-09-23T05:50:18.227Z,99.99
2018-09-23T05:51:16.942Z,99.99
2018-09-23T05:52:15.519Z,99.99
2018-09-23T05:53:14.271Z,99.99
2018-09-23T05:54:12.986Z,99.99
2018-09-23T05:55:11.775Z,99.99
2018-09-23T06:04:58.615Z,99.99
2018-09-23T06:05:57.319Z,99.99
2018-09-23T06:06:55.832Z,99.99
2018-09-23T06:07:54.645Z,99.99
2018-09-23T06:08:53.354Z,99.99
2018-09-23T06:09:51.981Z,99.99
2018-09-23T06:10:50.640Z,99.99
2018-09-23T06:11:49.214Z,99.99
2018-09-23T06:12:47.884Z,99.99
2018-09-23T06:13:46.957Z,99.99
2018-09-23T06:14:45.500Z,99.99
2018-09-23T06:15:44.430Z,99.99
2018-09-23T06:16:43.054Z,99.99
2018-09-23T06:17:42.151Z,99.99
2018-09-23T06:18:40.930Z,99.99
2018-09-23T06:21:04.028Z,99.99
2018-09-23T06:22:03.126Z,99.99
2018-09-23T06:23:01.875Z,99.99
2018-09-23T06:24:00.612Z,99.99
2018-09-23T06:24:59.344Z,99.99
2018-09-23T06:25:57.963Z,99.99
2018-09-23T06:26:56.514Z,99.99
2018-09-23T06:27:55.265Z,99.99
2018-09-23T06:28:53.778Z,99.99
2018-09-23T06:29:52.194Z,99.99
2018-09-23T06:30:51.059Z,99.99
2018-09-23T06:31:49.930Z,99.99
2018-09-23T06:32:48.469Z,99.99
2018-09-23T06:33:47.389Z,99.99
2018-09-23T06:34:46.255Z,99.99
2018-09-23T06:35:44.969Z,99.99
2018-09-23T06:36:43.793Z,99.99
2018-09-23T06:37:42.497Z,99.99
2018-09-23T06:38:41.517Z,99.99
2018-09-23T06:39:40.224Z,99.99
2018-09-23T06:40:39.149Z,99.99
2018-09-23T06:41:37.611Z,99.99
2018-09-23T06:42:36.236Z,99.99
2018-09-23T06:43:34.910Z,99.99
2018-09-23T06:44:33.589Z,99.99
2018-09-23T06:45:32.455Z,99.99
2018-09-23T06:46:31.028Z,99.99
2018-09-23T06:47:29.722Z,99.99
2018-09-23T06:48:28.302Z,99.99
2018-09-23T06:49:27.376Z,99.83
2018-09-23T06:50:26.038Z,99.99
2018-09-23T06:51:25.076Z,99.99
2018-09-23T06:52:23.899Z,99.83
2018-09-23T06:53:22.676Z,99.99
2018-09-23T06:54:21.785Z,99.44
2018-09-23T06:55:20.238Z,99.54
2018-09-23T06:56:19.600Z,99.73
2018-09-23T06:57:18.610Z,99.44
2018-09-23T06:58:17.608Z,99.16
2018-09-23T06:59:16.735Z,98.87
2018-09-23T07:00:15.473Z,99.44
2018-09-23T07:01:14.252Z,99.06
2018-09-23T07:02:13.224Z,99.26
2018-09-23T07:03:11.870Z,98.19
2018-09-23T07:04:10.542Z,97.33
2018-09-23T07:05:09.491Z,97.71
2018-09-23T07:06:08.164Z,97.24
2018-09-23T07:07:06.875Z,96.8
2018-09-23T07:08:05.565Z,96.32
2018-09-23T07:09:04.176Z,96.7
2018-09-23T07:10:02.825Z,96.32
2018-09-23T07:11:01.553Z,95.65
2018-09-23T07:12:00.301Z,95.65
2018-09-23T07:12:58.793Z,95.55
2018-09-23T07:13:57.701Z,95.36
2018-09-23T07:14:56.228Z,95.74
2018-09-23T07:15:55.010Z,95.45
2018-09-23T07:16:53.723Z,95.84
2018-09-23T07:17:52.638Z,95.55
2018-09-23T07:18:51.224Z,95.07
2018-09-23T07:19:49.913Z,95.07
2018-09-23T07:20:48.514Z,94.78
2018-09-23T07:21:47.143Z,94.1
2018-09-23T07:22:45.829Z,94.01
2018-09-23T07:23:44.523Z,94.78
2018-09-23T07:24:42.933Z,94.78
2018-09-23T07:25:41.660Z,94.87
2018-09-23T07:26:40.386Z,94.87
2018-09-23T07:27:39.418Z,94.97
2018-09-23T07:28:38.032Z,95.07
2018-09-23T07:29:36.639Z,95.89
2018-09-23T07:30:35.467Z,96.22
2018-09-23T07:34:57.764Z,99.99
2018-09-23T07:35:56.427Z,99.99
2018-09-23T07:36:57.344Z,99.99
2018-09-23T07:37:55.792Z,99.99
2018-09-23T07:38:54.740Z,99.99
2018-09-23T07:39:53.713Z,99.99
2018-09-23T07:40:52.297Z,99.99
2018-09-23T07:41:50.969Z,99.99
2018-09-23T07:42:49.701Z,99.99
2018-09-23T07:43:48.379Z,99.99
2018-09-23T07:44:47.223Z,99.99
2018-09-23T07:45:46.451Z,99.99
2018-09-23T07:46:45.058Z,99.99
2018-09-23T07:47:43.921Z,99.99
2018-09-23T07:48:42.558Z,99.99
2018-09-23T07:49:41.212Z,99.99
2018-09-23T07:50:39.896Z,99.99
2018-09-23T07:51:38.420Z,99.99
2018-09-23T07:54:01.315Z,99.99
2018-09-23T07:54:59.897Z,99.99
2018-09-23T07:57:40.279Z,99.99
2018-09-23T08:00:20.146Z,99.99
2018-09-23T08:01:18.869Z,99.99
2018-09-23T08:02:17.607Z,99.06
2018-09-23T08:03:16.358Z,99.35
2018-09-23T08:04:15.278Z,98.77
2018-09-23T08:05:13.899Z,98.87
2018-09-23T08:06:12.592Z,97.72
2018-09-23T08:07:11.288Z,97.09
2018-09-23T08:25:44.047Z,93.72
2018-09-23T08:26:43.247Z,93.71
2018-09-23T08:27:41.805Z,93.43
2018-09-23T08:28:40.611Z,94.1
2018-09-23T08:29:39.393Z,94
2018-09-23T08:30:38.152Z,95.16
2018-09-23T08:31:36.746Z,95.84
2018-09-23T08:32:35.607Z,95.26
2018-09-23T08:33:34.382Z,95.45
2018-09-23T08:34:33.310Z,95.84
2018-09-23T08:35:32.145Z,96.75
2018-09-23T08:36:30.821Z,97.04
2018-09-23T08:37:29.693Z,97.14
2018-09-23T08:38:28.686Z,98.29
2018-09-23T08:39:27.465Z,98.29
2018-09-23T08:42:07.626Z,99.99
2018-09-23T08:43:06.133Z,99.59
2018-09-23T08:45:46.563Z,99.99
2018-09-23T08:46:45.531Z,99.99
2018-09-23T08:47:44.166Z,99.99
2018-09-23T08:48:43.153Z,99.99
2018-09-23T08:49:42.270Z,99.59
2018-09-23T08:50:41.368Z,99.84
2018-09-23T08:51:40.086Z,98.39
2018-09-23T08:52:39.519Z,98.1
2018-09-23T08:53:38.101Z,97.72
2018-09-23T08:54:36.645Z,97.52
2018-09-23T08:55:35.371Z,97.72
2018-09-23T08:56:34.159Z,97.14
2018-09-23T08:59:14.676Z,96.85
2018-09-23T09:00:13.580Z,96.61
2018-09-23T09:01:12.092Z,96.61
2018-09-23T09:02:10.973Z,96.61
2018-09-23T09:03:09.813Z,96.51
2018-09-23T09:04:09.023Z,96.8
2018-09-23T09:05:07.719Z,96.51
2018-09-23T09:06:06.446Z,96.8
2018-09-23T09:07:05.108Z,96.89
2018-09-23T09:08:03.617Z,96.27
2018-09-23T09:09:02.497Z,96.08
2018-09-23T09:10:01.988Z,96.17
2018-09-23T09:12:42.401Z,95.79
2018-09-23T09:13:41.127Z,94.82
2018-09-23T09:14:39.842Z,95.59
2018-09-23T09:15:38.691Z,95.02
2018-09-23T09:16:38.368Z,95.5
2018-09-23T09:17:37.177Z,95.11
2018-09-23T09:20:00.017Z,95.31
2018-09-23T09:20:58.726Z,95.4
2018-09-23T09:21:57.772Z,95.21
2018-09-23T09:22:56.760Z,95.5
2018-09-23T09:23:55.778Z,95.59
2018-09-23T09:24:54.588Z,95.89
2018-09-23T09:27:34.962Z,95.31
2018-09-23T09:28:34.068Z,95.59
2018-09-23T09:29:32.635Z,95.4
2018-09-23T09:30:31.582Z,95.26
2018-09-23T09:31:30.229Z,95.26
2018-09-23T09:32:28.973Z,95.64
2018-09-23T09:33:27.918Z,95.84
2018-09-23T09:34:26.714Z,95.45
2018-09-23T09:35:25.630Z,95.54
2018-09-23T09:36:24.106Z,95.45
2018-09-23T09:37:22.945Z,95.36
2018-09-23T09:38:22.286Z,95.79
2018-09-23T09:39:21.144Z,96.08
2018-09-23T09:42:01.038Z,96.27
2018-09-23T09:42:59.784Z,95.89
2018-09-23T09:43:58.536Z,95.84
2018-09-23T09:44:57.314Z,95.45
2018-09-23T09:45:55.847Z,95.54
2018-09-23T09:46:54.627Z,95.16
2018-09-23T09:47:53.303Z,95.54
2018-09-23T09:48:52.171Z,95.36
2018-09-23T09:49:50.770Z,95.45
2018-09-23T09:50:49.524Z,95.93
2018-09-23T09:51:48.066Z,95.45
2018-09-23T09:52:47.075Z,95.74
2018-09-23T09:53:46.011Z,95.74
2018-09-23T09:54:44.731Z,95.64
2018-09-23T09:55:43.682Z,95.84
2018-09-23T09:56:42.342Z,95.93
2018-09-23T09:57:41.184Z,95.74
2018-09-23T09:58:39.781Z,95.93
2018-09-23T09:59:38.608Z,95.74
2018-09-23T10:00:37.392Z,95.36
2018-09-23T10:01:36.120Z,95.26
2018-09-23T10:02:34.697Z,95.74
2018-09-23T10:03:33.533Z,95.36
2018-09-23T10:04:32.165Z,95.45
2018-09-23T10:05:31.074Z,94.87
2018-09-23T10:06:30.094Z,94.87
2018-09-23T10:07:29.533Z,95.36
2018-09-23T10:08:28.452Z,95.06
2018-09-23T10:09:27.160Z,95.54
2018-09-23T10:10:26.072Z,94.96
2018-09-23T10:11:24.832Z,94.96
2018-09-23T10:12:23.763Z,95.06
2018-09-23T10:13:22.732Z,94.58
2018-09-23T10:14:22.863Z,95.4
2018-09-23T10:15:29.144Z,94.24
2018-09-23T10:16:29.230Z,93.85
2018-09-23T10:17:27.779Z,94.05
2018-09-23T10:18:28.267Z,93.95
2018-09-23T10:19:27.528Z,93.52
2018-09-23T10:20:29.507Z,93.32
2018-09-23T10:21:27.464Z,92.26
2018-09-23T10:22:27.971Z,92.36
2018-09-23T10:23:28.925Z,92.07
2018-09-23T10:24:27.687Z,92.02
2018-09-23T10:25:26.838Z,91.63
2018-09-23T10:26:31.383Z,91.92
2018-09-23T10:27:30.261Z,91.35
2018-09-23T10:28:30.248Z,91.92
2018-09-23T10:29:31.625Z,91.73
2018-09-23T10:30:31.377Z,91.35
2018-09-23T10:31:29.897Z,91.15
2018-09-23T10:32:28.445Z,91.63
2018-09-23T10:33:28.069Z,91.39
2018-09-23T10:34:26.829Z,91.11
2018-09-23T10:35:25.631Z,91.78
2018-09-23T10:36:24.337Z,91.3
2018-09-23T10:37:23.074Z,91.39
2018-09-23T10:38:21.748Z,91.2
2018-09-23T10:39:21.324Z,91.44
2018-09-23T10:40:19.866Z,91.78
2018-09-23T10:41:18.909Z,91.68
2018-09-23T10:42:17.747Z,91.59
2018-09-23T10:43:16.733Z,92.07
2018-09-23T10:44:15.801Z,92.07
2018-09-23T10:45:14.405Z,92.36
2018-09-23T10:46:13.856Z,92.26
2018-09-23T10:47:13.361Z,92.46
2018-09-23T10:48:12.055Z,92.36
2018-09-23T10:49:11.491Z,91.59
2018-09-23T10:50:10.754Z,92.65
2018-09-23T10:51:09.326Z,93.32
2018-09-23T10:52:08.485Z,93.9
2018-09-23T10:53:07.278Z,95.16
2018-09-23T10:54:06.291Z,95.45
2018-09-23T10:55:04.776Z,95.74
2018-09-23T10:56:03.929Z,95.64
2018-09-23T10:57:02.575Z,95.45
2018-09-23T10:58:01.382Z,95.83
2018-09-23T10:59:00.346Z,95.4
2018-09-23T10:59:58.854Z,95.83
2018-09-23T11:00:57.583Z,95.54
2018-09-23T11:01:56.119Z,95.59
2018-09-23T11:02:54.735Z,94.92
2018-09-23T11:03:53.648Z,95.11
2018-09-23T11:04:52.210Z,95.2
2018-09-23T11:05:51.325Z,94.92
2018-09-23T11:06:50.010Z,94.67
2018-09-23T11:07:49.028Z,93.76
2018-09-23T11:08:47.858Z,94.24
2018-09-23T11:09:46.691Z,93.99
2018-09-23T11:10:45.108Z,93.8
2018-09-23T11:11:43.972Z,93.51
2018-09-23T11:12:43.161Z,93.41
2018-09-23T11:15:23.544Z,92.74
2018-09-23T11:16:22.286Z,92.35
2018-09-23T11:17:21.145Z,92.07
2018-09-23T11:18:19.978Z,92.45
2018-09-23T11:19:18.670Z,92.16
2018-09-23T11:20:17.310Z,92.25
2018-09-23T11:21:16.033Z,92.25
2018-09-23T11:22:14.717Z,92.31
2018-09-23T11:23:13.441Z,91.87
2018-09-23T11:24:11.886Z,91.77
2018-09-23T11:25:10.569Z,91.49
2018-09-23T11:26:09.619Z,91.19
2018-09-23T11:27:09.075Z,91.29
2018-09-23T11:28:08.236Z,90.81
2018-09-23T11:29:08.009Z,91.09
2018-09-23T11:30:06.553Z,90.71
2018-09-23T11:31:05.828Z,91
2018-09-23T11:32:04.404Z,90.42
2018-09-23T11:33:03.557Z,90.23
2018-09-23T11:34:02.275Z,90.13
2018-09-23T11:35:01.016Z,90.33
2018-09-23T11:35:59.980Z,89.94
2018-09-23T11:36:58.462Z,90.23
2018-09-23T11:37:57.251Z,90.33
2018-09-23T11:38:55.955Z,89.94
2018-09-23T11:39:54.740Z,89.94
2018-09-23T11:40:53.309Z,89.65
2018-09-23T11:41:51.949Z,89.45
2018-09-23T11:42:50.588Z,89.36
2018-09-23T11:43:49.602Z,88.97
2018-09-23T11:44:48.252Z,88.78
2018-09-23T11:45:46.931Z,89.26
2018-09-23T11:46:45.749Z,88.97
2018-09-23T11:47:44.581Z,88.97
2018-09-23T11:48:43.324Z,89.26
2018-09-23T11:49:42.107Z,88.78
2018-09-23T11:50:40.910Z,89.65
2018-09-23T11:51:39.733Z,89.26
2018-09-23T11:52:38.484Z,88.97
2018-09-23T11:53:36.992Z,88.97
2018-09-23T11:54:35.584Z,89.55
2018-09-23T11:55:34.453Z,89.17
2018-09-23T11:56:33.168Z,88.82
2018-09-23T11:57:31.793Z,88.92
2018-09-23T11:58:30.480Z,88.05
2018-09-23T11:59:29.108Z,87.9
2018-09-23T12:00:27.752Z,88.15
2018-09-23T12:01:26.376Z,88.15
2018-09-23T12:02:25.088Z,88.09
2018-09-23T12:03:23.677Z,87.99
2018-09-23T12:04:22.322Z,87.61
2018-09-23T12:05:21.012Z,87.99
2018-09-23T12:06:19.708Z,87.71
2018-09-23T12:07:18.268Z,87.13
2018-09-23T12:08:17.120Z,87.32
2018-09-23T12:09:16.031Z,86.93
2018-09-23T12:10:14.697Z,87.23
2018-09-23T12:11:13.308Z,86.45
2018-09-23T12:12:11.869Z,86.2
2018-09-23T12:13:10.647Z,86.59
2018-09-23T12:14:09.537Z,86.1
2018-09-23T12:15:08.208Z,86.3
2018-09-23T12:16:06.719Z,85.62
2018-09-23T12:17:05.324Z,85.28
2018-09-23T12:18:04.069Z,85.91
2018-09-23T12:19:02.674Z,85.72
2018-09-23T12:20:01.550Z,86.4
2018-09-23T12:21:00.183Z,86.2
2018-09-23T12:21:58.754Z,86.49
2018-09-23T12:22:57.574Z,86.49
2018-09-23T12:23:56.549Z,85.62
2018-09-23T12:24:55.280Z,85.24
2018-09-23T12:25:54.044Z,85.28
2018-09-23T12:26:52.872Z,85.28
2018-09-23T12:27:51.685Z,84.79
2018-09-23T12:28:50.305Z,84.6
2018-09-23T12:29:48.988Z,85.18
2018-09-23T12:30:47.665Z,85.47
2018-09-23T12:31:46.324Z,85.37
2018-09-23T12:32:45.063Z,85.52
2018-09-23T12:35:25.331Z,85.42
2018-09-23T12:36:23.820Z,85.91
2018-09-23T12:37:22.632Z,85.24
2018-09-23T12:38:21.150Z,85.04
2018-09-23T12:39:19.732Z,85.62
2018-09-23T12:40:18.332Z,84.84
2018-09-23T12:41:17.324Z,84.89
2018-09-23T12:42:16.018Z,84.69
2018-09-23T12:43:15.156Z,84.6
2018-09-23T12:44:13.831Z,84.89
2018-09-23T12:45:12.769Z,84.66
2018-09-23T12:46:11.700Z,84.46
2018-09-23T12:47:10.288Z,84.84
2018-09-23T12:48:08.900Z,85.14
2018-09-23T12:49:07.687Z,84.5
2018-09-23T12:50:06.325Z,84.27
2018-09-23T12:51:05.631Z,84.36
2018-09-23T12:52:04.158Z,84.46
2018-09-23T12:53:02.647Z,84.75
2018-09-23T12:54:01.373Z,84.66
2018-09-23T12:55:00.116Z,84.56
2018-09-23T12:55:58.930Z,85.24
2018-09-23T12:56:57.601Z,85.33
2018-09-23T12:57:56.376Z,85.14
2018-09-23T12:58:55.169Z,84.94
2018-09-23T12:59:53.705Z,84.46
2018-09-23T13:00:52.425Z,84.27
2018-09-23T13:04:19.129Z,84.21
2018-09-23T13:05:17.729Z,84.75
2018-09-23T13:06:16.359Z,84.31
2018-09-23T13:07:15.272Z,84.41
2018-09-23T13:08:13.755Z,84.11
2018-09-23T13:09:12.371Z,84.11
2018-09-23T13:10:11.126Z,83.34
2018-09-23T13:11:09.963Z,84.5
2018-09-23T13:12:08.461Z,83.34
2018-09-23T13:13:07.190Z,83.53
2018-09-23T13:14:05.812Z,84.5
2018-09-23T13:15:05.283Z,83.92
2018-09-23T13:16:04.190Z,83.83
2018-09-23T13:17:03.073Z,83.44
2018-09-23T13:18:01.779Z,83.63
2018-09-23T13:19:00.348Z,83.83
2018-09-23T13:19:59.035Z,83.92
2018-09-23T13:20:57.877Z,83.67
2018-09-23T13:21:56.541Z,83.48
2018-09-23T13:22:55.473Z,82.9
2018-09-23T13:23:54.354Z,83
2018-09-23T13:24:53.200Z,82.9
2018-09-23T13:25:52.428Z,82.41
2018-09-23T13:26:51.305Z,82.32
2018-09-23T13:27:50.217Z,82.6
2018-09-23T13:28:49.826Z,82.8
2018-09-23T13:29:48.461Z,82.41
2018-09-23T13:30:47.198Z,82.12
2018-09-23T13:31:45.926Z,82.6
2018-09-23T13:32:44.713Z,83.09
2018-09-23T13:33:43.724Z,83
2018-09-23T13:34:42.223Z,83.09
2018-09-23T13:35:40.761Z,83.09
2018-09-23T13:36:39.475Z,83.28
2018-09-23T13:37:38.052Z,83
2018-09-23T13:38:36.881Z,83.18
2018-09-23T13:39:36.097Z,83.28
2018-09-23T13:40:35.090Z,83.58
2018-09-23T13:41:33.812Z,83.58
2018-09-23T13:42:32.327Z,83.28
2018-09-23T13:43:31.177Z,83.48
2018-09-23T13:44:30.131Z,83.34
2018-09-23T13:45:28.914Z,83.63
2018-09-23T13:46:27.836Z,83.28
2018-09-23T13:50:19.378Z,83.77
2018-09-23T13:51:18.303Z,83.63
2018-09-23T13:52:17.104Z,83.25
2018-09-23T13:53:15.841Z,83
2018-09-23T13:54:14.570Z,83.09
2018-09-23T13:55:13.451Z,83.18
2018-09-23T13:56:12.214Z,83.38
2018-09-23T13:57:10.918Z,83.48
2018-09-23T13:58:09.580Z,83.48
2018-09-23T13:59:08.323Z,83.25
2018-09-23T14:00:06.944Z,82.95
2018-09-23T14:01:05.909Z,83.44
2018-09-23T14:02:04.709Z,83.83
2018-09-23T14:03:03.610Z,84.21
2018-09-23T14:04:02.502Z,84.01
2018-09-23T14:05:01.372Z,84.5
2018-09-23T14:07:41.708Z,84.5
2018-09-23T14:08:40.469Z,84.11
2018-09-23T14:09:39.583Z,84.6
2018-09-23T14:10:38.360Z,84.41
2018-09-23T14:11:37.213Z,84.94
2018-09-23T14:15:17.598Z,85.52
2018-09-23T14:16:16.367Z,85.82
2018-09-23T14:17:16.992Z,87.07
2018-09-23T14:18:16.281Z,87.95
2018-09-23T14:19:15.268Z,88.48
2018-09-23T14:20:13.956Z,89.54
2018-09-23T14:21:13.207Z,90.12
2018-09-23T14:22:12.135Z,90.41
2018-09-23T14:23:11.037Z,91.19
2018-09-23T14:24:10.020Z,92.25
2018-09-23T14:26:50.220Z,93.7
2018-09-23T14:30:45.699Z,97.14
2018-09-23T14:31:44.250Z,97.81
2018-09-23T14:34:24.611Z,99.55
2018-09-23T14:35:23.358Z,99.84
2018-09-23T14:36:21.972Z,99.99
2018-09-23T14:37:20.948Z,99.99
2018-09-23T14:38:19.470Z,99.99
2018-09-23T14:39:17.952Z,99.99
2018-09-23T14:56:02.231Z,98.93
2018-09-23T14:57:00.761Z,98.54
2018-09-23T14:57:59.645Z,99.02
2018-09-23T14:58:58.385Z,98.44
2018-09-23T15:00:03.066Z,97.96
2018-09-23T15:00:56.059Z,97.38
2018-09-23T15:01:54.758Z,98.54
2018-09-23T15:02:53.849Z,97.67
2018-09-23T15:03:52.664Z,96.99
2018-09-23T15:04:51.505Z,96.89
2018-09-23T15:05:50.036Z,95.83
2018-09-23T15:06:48.738Z,96.51
2018-09-23T15:07:48.040Z,94.96
2018-09-23T15:08:46.863Z,95.06
2018-09-23T15:11:28.176Z,95.64
2018-09-23T15:12:26.983Z,95.45
2018-09-23T15:13:25.608Z,95.45
2018-09-23T15:14:24.544Z,94.87
2018-09-23T15:15:23.503Z,94.87
2018-09-23T15:16:22.149Z,95.06
2018-09-23T15:17:21.092Z,94.77
2018-09-23T15:18:19.714Z,94.57
2018-09-23T15:19:18.610Z,95.45
2018-09-23T15:20:17.466Z,95.06
2018-09-23T15:21:16.281Z,95.15
2018-09-23T15:22:14.818Z,95.45
2018-09-23T15:23:13.817Z,95.35
2018-09-23T15:24:12.650Z,95.54
2018-09-23T15:25:11.263Z,95.25
2018-09-23T15:26:09.847Z,95.64
2018-09-23T15:27:09.750Z,95.93
2018-09-23T15:28:09.083Z,95.35
2018-09-23T15:29:07.763Z,95.64
2018-09-23T15:30:06.379Z,95.45
2018-09-23T15:31:05.073Z,95.35
2018-09-23T15:32:03.833Z,95.73
2018-09-23T15:33:02.333Z,95.25
2018-09-23T15:34:00.804Z,94.87
2018-09-23T15:34:59.976Z,94.77
2018-09-23T15:35:58.826Z,94.38
2018-09-23T15:36:57.583Z,94.19
2018-09-23T15:37:56.512Z,93.51
2018-09-23T15:38:55.861Z,94.09
2018-09-23T15:39:55.691Z,93.99
2018-09-23T15:40:55.811Z,93.61
2018-09-23T15:41:54.592Z,93.71
2018-09-23T15:42:53.184Z,93.41
2018-09-23T15:43:52.096Z,93.37
2018-09-23T15:44:51.360Z,93.08
2018-09-23T15:50:11.797Z,92.69
2018-09-23T15:51:10.493Z,91.91
2018-09-23T15:52:09.801Z,91.91
2018-09-23T15:53:09.086Z,92.49
2018-09-23T15:54:07.728Z,92.25
2018-09-23T15:55:06.774Z,92.21
2018-09-23T15:56:05.549Z,92.21
2018-09-23T15:57:04.112Z,92.49